Time;durP1;ratioP1;P1;durP2;ratioP2;P2;SDS_P1;SDS_P2;PMS_P1;PMS_P2;Temp;Humidity;BMP_temperature;BMP_pressure;BME280_temperature;BME280_humidity;BME280_pressure;Samples;Min_cycle;Max_cycle;Signal;HPM_P1;HPM_P2
2021/03/23 00:00:51;;;;;;;;;;;2.80;99.90;;;1.49;77.21;96369.03;10214218;29;1904;-82
2021/03/23 00:06:08;;;;;;;;;;;2.70;99.90;;;1.33;77.61;96360.44;10224032;29;1744;-83
2021/03/23 00:11:09;;;;;;;;;;;2.80;99.90;;;1.27;78.34;96373.66;10229201;29;1838;-82
2021/03/23 00:16:11;;;;;;;;;;;2.50;99.90;;;1.21;78.50;96377.97;10216337;29;1743;-83
2021/03/23 00:21:13;;;;;;;;;;;4.10;99.90;;;1.14;79.04;96381.59;10227220;29;1918;-82
2021/03/23 00:26:15;;;;;;;;;;;2.30;99.90;;;1.15;79.03;96377.94;10250560;29;1884;-80
2021/03/23 00:31:17;;;;;;;;;;;2.70;99.90;;;1.14;79.17;96377.09;10238371;29;1959;-80
2021/03/23 00:36:29;;;;;;;;;;;2.20;99.90;;;1.21;78.82;96377.97;10218361;29;1900;-82
2021/03/23 00:41:31;;;;;;;;;;;3.50;99.90;;;1.32;78.28;96374.69;10236840;29;2015;-81
2021/03/23 00:46:33;;;;;;;;;;;2.30;99.90;;;1.35;78.16;96374.31;10231747;29;1678;-84
2021/03/23 00:51:35;;;;;;;;;;;4.10;99.90;;;1.30;78.03;96360.03;10243045;28;1415;-83
2021/03/23 00:56:37;;;;;;;;;;;2.40;99.90;;;1.33;77.82;96370.22;10236694;29;1927;-83
2021/03/23 01:01:39;;;;;;;;;;;2.40;99.90;;;1.35;77.92;96365.56;10233453;29;1923;-84
2021/03/23 01:06:55;;;;;;;;;;;2.70;99.90;;;1.43;77.78;96364.53;10213824;29;2025;-82
2021/03/23 01:11:57;;;;;;;;;;;3.50;99.90;;;1.39;77.87;96369.41;10214960;29;1945;-81
2021/03/23 01:16:58;;;;;;;;;;;2.50;99.90;;;1.42;78.06;96361.09;10231285;29;1999;-83
2021/03/23 01:22:00;;;;;;;;;;;2.50;99.90;;;1.39;77.83;96364.13;10223687;29;1922;-83
2021/03/23 01:27:08;;;;;;;;;;;2.40;99.90;;;1.43;77.76;96360.06;10231867;29;1841;-80
2021/03/23 01:32:09;;;;;;;;;;;3.40;99.90;;;1.45;77.57;96355.38;10229361;29;2342;-81
2021/03/23 01:37:18;;;;;;;;;;;2.50;99.90;;;1.48;77.49;96349.69;10223351;29;1976;-83
2021/03/23 01:42:20;;;;;;;;;;;2.50;99.90;;;1.46;77.33;96356.19;10209865;29;1911;-83
2021/03/23 01:47:22;;;;;;;;;;;2.50;99.90;;;1.49;78.02;96353.97;10205079;29;1893;-83
2021/03/23 01:52:24;;;;;;;;;;;2.60;99.90;;;1.47;77.54;96355.19;10219749;29;1672;-82
2021/03/23 01:57:25;;;;;;;;;;;2.60;99.90;;;1.47;77.80;96349.88;10205792;29;1988;-83
2021/03/23 02:02:27;;;;;;;;;;;2.60;99.90;;;1.46;77.75;96345.59;10223888;29;1721;-84
2021/03/23 02:07:42;;;;;;;;;;;2.50;99.90;;;1.47;78.08;96344.59;10219689;29;1765;-82
2021/03/23 02:12:43;;;;;;;;;;;2.50;99.90;;;1.44;78.09;96335.19;10226802;29;1880;-82
2021/03/23 02:17:45;;;;;;;;;;;2.50;99.90;;;1.38;78.09;96333.34;10217475;29;1974;-81
2021/03/23 02:22:47;;;;;;;;;;;2.50;99.90;;;1.33;78.42;96330.50;10241724;29;1634;-82
2021/03/23 02:27:49;;;;;;;;;;;2.80;99.90;;;1.29;78.40;96326.63;10252641;29;2089;-84
2021/03/23 02:32:51;;;;;;;;;;;2.40;99.90;;;1.27;78.75;96329.50;10264828;29;1708;-83
2021/03/23 02:38:04;;;;;;;;;;;2.40;99.90;;;1.19;78.85;96320.91;10255584;29;3223;-81
2021/03/23 02:43:05;;;;;;;;;;;2.30;99.90;;;1.13;78.91;96321.69;10242178;28;1714;-80
2021/03/23 02:48:07;;;;;;;;;;;2.40;99.90;;;1.04;79.43;96324.53;10243042;29;1801;-81
2021/03/23 02:53:09;;;;;;;;;;;2.20;99.90;;;1.02;79.76;96323.94;10251953;29;2155;-80
2021/03/23 02:58:19;;;;;;;;;;;2.20;99.90;;;0.97;80.17;96329.00;10225167;29;1984;-82
2021/03/23 03:03:24;;;;;;;;;;;2.10;99.90;;;0.97;80.35;96334.31;10239140;29;2062;-80
2021/03/23 03:08:27;;;;;;;;;;;2.00;99.90;;;0.94;80.39;96332.03;10234318;29;2081;-82
2021/03/23 03:13:29;;;;;;;;;;;2.00;99.90;;;0.95;80.28;96336.31;10211717;29;2439;-83
2021/03/23 03:18:30;;;;;;;;;;;2.00;99.90;;;0.94;79.93;96341.81;10237253;29;2000;-83
2021/03/23 03:23:33;;;;;;;;;;;2.00;99.90;;;0.91;80.23;96343.03;10224591;29;2109;-82
2021/03/23 03:28:36;;;;;;;;;;;2.00;99.90;;;0.95;80.42;96356.69;10224634;29;2112;-83
2021/03/23 03:33:38;;;;;;;;;;;2.00;99.90;;;0.95;80.38;96346.91;10261033;29;2199;-82
2021/03/23 03:38:50;;;;;;;;;;;2.00;99.90;;;0.95;80.56;96356.69;10270385;29;1888;-82
2021/03/23 03:43:52;;;;;;;;;;;2.00;99.90;;;1.01;80.24;96356.69;10261469;29;2093;-82
2021/03/23 03:48:53;;;;;;;;;;;2.00;99.90;;;1.04;79.92;96358.16;10235543;29;1782;-83
2021/03/23 03:53:55;;;;;;;;;;;2.10;99.90;;;1.07;79.83;96358.53;10244711;29;1818;-82
2021/03/23 03:58:57;;;;;;;;;;;2.10;99.90;;;1.08;79.75;96360.19;10235187;29;1993;-82
2021/03/23 04:03:59;;;;;;;;;;;2.60;99.90;;;1.12;79.95;96360.59;10239140;29;2071;-83
2021/03/23 04:09:13;;;;;;;;;;;2.20;99.90;;;1.10;80.20;96359.19;10229649;29;2141;-83
2021/03/23 04:14:15;;;;;;;;;;;2.20;99.90;;;1.11;79.92;96352.88;10236527;29;1890;-83
2021/03/23 04:19:17;;;;;;;;;;;2.20;99.90;;;1.15;79.73;96362.88;10240301;29;2041;-84
2021/03/23 04:24:18;;;;;;;;;;;2.20;99.90;;;1.22;79.64;96357.59;10243447;29;2064;-84
2021/03/23 04:29:20;;;;;;;;;;;3.30;99.90;;;1.23;79.42;96354.72;10253961;29;1848;-85
2021/03/23 04:34:22;;;;;;;;;;;2.20;99.90;;;1.29;79.11;96361.06;10234436;29;2355;-83
2021/03/23 04:39:37;;;;;;;;;;;2.30;99.90;;;1.32;78.85;96366.75;10238000;29;2129;-83
2021/03/23 04:44:38;;;;;;;;;;;2.40;99.90;;;1.22;78.67;96369.00;10250082;29;2152;-84
2021/03/23 04:49:41;;;;;;;;;;;3.80;99.90;;;1.17;78.80;96366.13;10277662;28;2444;-84
2021/03/23 04:54:43;;;;;;;;;;;2.30;99.90;;;1.17;79.17;96371.41;10262709;29;1886;-84
2021/03/23 04:59:45;;;;;;;;;;;2.60;99.90;;;1.19;78.92;96381.81;10212869;29;2082;-85
2021/03/23 05:04:46;;;;;;;;;;;2.20;99.90;;;1.18;79.32;96382.81;10231760;29;1876;-85
2021/03/23 05:09:57;;;;;;;;;;;2.20;99.90;;;1.17;79.25;96387.31;10238329;29;2036;-84
2021/03/23 05:14:59;;;;;;;;;;;2.70;99.90;;;1.22;79.39;96399.97;10219797;29;2081;-85
2021/03/23 05:20:01;;;;;;;;;;;2.20;99.90;;;1.29;79.11;96396.31;10220942;29;2082;-83
2021/03/23 05:25:03;;;;;;;;;;;2.30;99.90;;;1.38;78.83;96402.22;10231776;29;2020;-83
2021/03/23 05:30:05;;;;;;;;;;;2.30;99.90;;;1.41;78.99;96398.38;10238425;29;1731;-82
2021/03/23 05:35:06;;;;;;;;;;;2.40;99.90;;;1.45;78.56;96400.41;10204655;28;1961;-84
2021/03/23 05:40:20;;;;;;;;;;;2.40;99.90;;;1.56;78.13;96402.47;10255069;29;1993;-81
2021/03/23 05:45:21;;;;;;;;;;;2.50;99.90;;;1.59;78.58;96414.50;10209311;29;2112;-84
2021/03/23 05:50:23;;;;;;;;;;;2.60;99.90;;;1.66;77.83;96412.69;10228296;29;2119;-84
2021/03/23 05:55:25;;;;;;;;;;;2.70;99.90;;;1.83;77.06;96421.06;10234991;29;2009;-83
2021/03/23 06:00:27;;;;;;;;;;;2.70;99.90;;;1.83;76.72;96419.22;10244029;29;2114;-83
2021/03/23 06:05:29;;;;;;;;;;;2.90;99.90;;;1.85;76.83;96432.28;10206838;29;2054;-83
2021/03/23 06:10:44;;;;;;;;;;;2.80;99.90;;;1.86;76.51;96433.91;10226475;29;1640;-82
2021/03/23 06:15:46;;;;;;;;;;;2.80;99.90;;;1.85;77.06;96440.25;10223706;29;1970;-83
2021/03/23 06:20:48;;;;;;;;;;;2.70;99.90;;;1.86;77.27;96449.81;10228744;29;2392;-82
2021/03/23 06:25:50;;;;;;;;;;;2.80;99.90;;;2.09;76.55;96436.16;10243572;29;1988;-84
2021/03/23 06:30:52;;;;;;;;;;;3.00;99.90;;;2.31;75.63;96444.72;10213850;29;1972;-84
2021/03/23 06:35:58;;;;;;;;;;;3.10;99.90;;;2.65;74.58;96454.28;10212486;29;2138;-80
2021/03/23 06:41:13;;;;;;;;;;;3.40;99.90;;;2.72;74.40;96455.88;10209422;29;2360;-82
2021/03/23 06:46:14;;;;;;;;;;;4.90;99.90;;;2.87;73.73;96457.50;10227622;29;2007;-82
2021/03/23 06:51:18;;;;;;;;;;;3.60;99.90;;;3.17;72.76;96468.44;10238043;29;2141;-80
2021/03/23 06:56:20;;;;;;;;;;;4.40;99.90;;;3.27;72.42;96462.69;10265069;28;1992;-83
2021/03/23 07:01:22;;;;;;;;;;;4.10;99.90;;;3.65;71.69;96471.50;10227061;29;2042;-83
2021/03/23 07:06:24;;;;;;;;;;;4.40;99.90;;;3.77;70.65;96467.16;10241721;29;2075;-82
2021/03/23 07:11:32;;;;;;;;;;;5.30;99.90;;;3.81;70.36;96459.53;10251867;29;1895;-83
2021/03/23 07:16:33;;;;;;;;;;;5.20;99.90;;;3.83;70.97;96477.97;10253802;29;1920;-85
2021/03/23 07:21:35;;;;;;;;;;;4.70;99.90;;;4.04;69.78;96470.44;10212310;29;1983;-82
2021/03/23 07:26:37;;;;;;;;;;;5.10;99.90;;;4.30;69.20;96466.78;10238492;29;1952;-84
2021/03/23 07:31:40;;;;;;;;;;;5.10;99.90;;;4.59;68.07;96470.63;10209611;29;2043;-81
2021/03/23 07:36:43;;;;;;;;;;;5.30;99.90;;;4.44;67.89;96469.31;10215414;29;2185;-83
2021/03/23 07:41:53;;;;;;;;;;;5.30;99.90;;;4.36;68.19;96472.25;10239937;29;2194;-88
2021/03/23 07:46:55;;;;;;;;;;;5.30;99.90;;;4.52;67.44;96479.72;10269250;29;2345;-83
2021/03/23 07:51:57;;;;;;;;;;;6.60;99.90;;;4.64;67.30;96477.13;10207515;29;2035;-82
2021/03/23 07:56:59;;;;;;;;;;;5.60;99.90;;;4.68;67.08;96478.34;10221654;29;2032;-83
2021/03/23 08:02:00;;;;;;;;;;;5.60;99.90;;;4.89;66.01;96467.25;10210943;29;2058;-84
2021/03/23 08:07:03;;;;;;;;;;;5.70;99.90;;;4.82;66.67;96477.97;10222828;29;2035;-82
2021/03/23 08:12:17;;;;;;;;;;;6.60;99.90;;;5.50;64.64;96478.91;10213234;29;1791;-84
2021/03/23 08:17:19;;;;;;;;;;;6.50;99.90;;;5.64;63.38;96472.34;10225829;29;1879;-85
2021/03/23 08:22:32;;;;;;;;;;;6.40;99.90;;;5.63;62.88;96476.06;10501761;27;1922;-83
2021/03/23 08:27:35;;;;;;;;;;;6.60;99.90;;;6.13;61.66;96481.16;10491328;28;1895;-82
2021/03/23 08:32:39;;;;;;;;;;;6.80;99.90;;;6.50;60.76;96479.97;10491292;28;2009;-83
2021/03/23 08:37:44;;;;;;;;;;;8.80;99.90;;;6.66;58.53;96488.31;10497752;28;1974;-83
2021/03/23 08:42:49;;;;;;;;;;;7.50;99.90;;;6.86;58.40;96482.63;10493966;28;2052;-87
2021/03/23 08:47:51;;;;;;;;;;;8.30;99.90;;;6.90;58.62;96487.28;10511017;28;2246;-86
2021/03/23 08:52:55;;;;;;;;;;;7.80;99.90;;;7.26;56.30;96490.75;10508507;28;1950;-87
2021/03/23 08:57:57;;;;;;;;;;;7.90;99.90;;;7.07;55.33;96494.63;10516060;28;2430;-83
2021/03/23 09:02:59;;;;;;;;;;;8.60;97.30;;;6.85;56.95;96489.84;10482240;28;1898;-80
2021/03/23 09:08:01;;;;;;;;;;;7.90;97.20;;;7.09;56.23;96493.34;10485181;28;1990;-83
2021/03/23 09:13:06;;;;;;;;;;;7.90;96.40;;;7.00;55.80;96486.72;10484985;28;2235;-82
2021/03/23 09:18:08;;;;;;;;;;;8.00;95.40;;;7.15;54.94;96496.94;10493047;28;2404;-84
2021/03/23 09:23:10;;;;;;;;;;;8.20;92.80;;;7.27;53.50;96489.72;10509286;28;1358;-84
2021/03/23 09:28:12;;;;;;;;;;;8.20;91.20;;;6.73;54.21;96494.38;10500935;28;1985;-84
2021/03/23 09:33:13;;;;;;;;;;;8.00;90.10;;;7.20;55.18;96484.50;10475304;28;1740;-84
2021/03/23 09:38:17;;;;;;;;;;;8.00;91.60;;;7.13;52.17;96485.66;10474470;28;2024;-85
2021/03/23 09:43:25;;;;;;;;;;;8.60;87.50;;;7.08;52.65;96481.00;10464081;28;2151;-83
2021/03/23 09:48:27;;;;;;;;;;;8.00;87.20;;;7.40;47.10;96481.44;10476939;28;2049;-83
2021/03/23 09:53:29;;;;;;;;;;;8.60;81.80;;;7.37;48.09;96473.06;10463890;28;2021;-82
2021/03/23 09:58:31;;;;;;;;;;;8.20;81.40;;;8.24;46.50;96472.84;10491865;28;2037;-84
2021/03/23 10:03:34;;;;;;;;;;;9.20;81.30;;;8.11;45.63;96468.59;10463989;28;2126;-83
2021/03/23 10:08:37;;;;;;;;;;;10.40;78.20;;;7.00;48.94;96470.69;10470920;28;2054;-85
2021/03/23 10:13:48;;;;;;;;;;;8.30;78.60;;;6.22;51.91;96472.56;10506755;28;2037;-83
2021/03/23 10:18:50;;;;;;;;;;;7.50;81.00;;;5.69;52.08;96483.16;10494223;28;2068;-85
2021/03/23 10:23:52;;;;;;;;;;;6.90;81.50;;;5.71;49.60;96478.41;10472914;28;2053;-83
2021/03/23 10:28:55;;;;;;;;;;;8.40;80.30;;;5.99;49.05;96482.41;10490505;28;1950;-83
2021/03/23 10:33:57;;;;;;;;;;;6.90;80.10;;;5.97;50.91;96488.75;10493652;28;1998;-83
2021/03/23 10:39:00;;;;;;;;;;;6.90;80.90;;;6.42;50.99;96477.59;10490540;28;2029;-84
2021/03/23 10:44:12;;;;;;;;;;;7.10;82.20;;;6.81;51.20;96464.66;10467197;28;1964;-84
2021/03/23 10:49:13;;;;;;;;;;;7.50;82.50;;;6.88;49.00;96476.03;10475208;28;2061;-84
2021/03/23 10:54:16;;;;;;;;;;;8.60;81.00;;;7.01;46.48;96474.97;10477961;28;1999;-82
2021/03/23 10:59:18;;;;;;;;;;;7.80;77.50;;;6.83;46.55;96477.78;10473470;28;1978;-83
2021/03/23 11:04:21;;;;;;;;;;;8.60;77.00;;;7.26;45.55;96477.41;10467014;28;1984;-83
2021/03/23 11:09:23;;;;;;;;;;;7.90;76.50;;;7.72;47.23;96464.94;10458564;28;2068;-82
2021/03/23 11:14:37;;;;;;;;;;;8.30;77.70;;;7.86;49.14;96460.91;10460525;28;2009;-83
2021/03/23 11:19:42;;;;;;;;;;;9.20;79.10;;;8.19;48.32;96456.69;10462014;28;1946;-84
2021/03/23 11:24:43;;;;;;;;;;;9.90;79.10;;;8.23;46.99;96452.47;10495115;28;1913;-85
2021/03/23 11:29:45;;;;;;;;;;;9.10;76.90;;;7.88;47.43;96468.69;10481593;28;1970;-85
2021/03/23 11:34:48;;;;;;;;;;;9.90;76.50;;;7.71;47.96;96466.00;10486089;28;1970;-83
2021/03/23 11:39:50;;;;;;;;;;;9.80;77.00;;;7.92;47.21;96465.31;10469033;28;2042;-84
2021/03/23 11:44:54;;;;;;;;;;;9.40;77.10;;;8.10;48.62;96461.63;10462304;28;1610;-85
2021/03/23 11:49:56;;;;;;;;;;;8.80;77.40;;;8.31;47.84;96458.25;10456595;28;2475;-85
2021/03/23 11:54:59;;;;;;;;;;;9.10;77.00;;;7.87;48.96;96457.19;10465187;28;3336;-86
2021/03/23 12:00:04;;;;;;;;;;;8.90;77.40;;;7.83;48.62;96453.38;10466028;28;3482;-84
2021/03/23 12:05:07;;;;;;;;;;;10.00;77.90;;;7.66;50.02;96455.19;10483953;28;1891;-83
2021/03/23 12:10:09;;;;;;;;;;;8.70;78.00;;;6.77;52.39;96453.59;10465513;28;1967;-83
2021/03/23 12:15:14;;;;;;;;;;;9.30;79.90;;;6.67;53.16;96447.19;10469269;28;3211;-84
2021/03/23 12:20:18;;;;;;;;;;;7.80;81.00;;;6.47;54.29;96453.69;10463782;28;1941;-85
2021/03/23 12:25:20;;;;;;;;;;;7.50;82.20;;;7.22;52.41;96452.16;10456001;28;1256;-84
2021/03/23 12:30:22;;;;;;;;;;;7.80;81.80;;;7.62;50.94;96448.69;10461353;28;1590;-84
2021/03/23 12:35:25;;;;;;;;;;;8.30;80.50;;;7.37;50.23;96452.47;10458943;28;2036;-86
2021/03/23 12:40:28;;;;;;;;;;;8.30;78.70;;;7.15;50.83;96448.81;10470398;28;2165;-88
2021/03/23 12:45:36;;;;;;;;;;;8.20;78.40;;;7.16;51.52;96455.78;10458846;28;2002;-86
2021/03/23 12:50:38;;;;;;;;;;;9.20;79.70;;;7.03;52.13;96454.16;10458577;28;2085;-86
2021/03/23 12:55:41;;;;;;;;;;;8.70;80.30;;;6.70;52.64;96446.75;10461276;28;1886;-86
2021/03/23 13:00:43;;;;;;;;;;;7.80;80.00;;;6.69;53.20;96443.28;10476930;28;2044;-83
2021/03/23 13:05:45;;;;;;;;;;;7.80;81.10;;;7.21;52.43;96442.53;10466664;28;1938;-84
2021/03/23 13:10:50;;;;;;;;;;;7.90;81.60;;;6.68;53.15;96448.81;10485103;28;1997;-85
2021/03/23 13:15:58;;;;;;;;;;;7.90;80.70;;;6.59;54.22;96450.22;10503128;28;1744;-83
2021/03/23 13:21:00;;;;;;;;;;;8.80;82.40;;;6.60;55.97;96443.84;10479207;28;1918;-85
2021/03/23 13:26:03;;;;;;;;;;;7.60;83.60;;;6.64;55.90;96443.16;10473702;28;1671;-86
2021/03/23 13:31:05;;;;;;;;;;;7.60;84.40;;;6.37;57.85;96453.47;10466688;28;1980;-86
2021/03/23 13:36:07;;;;;;;;;;;7.50;85.80;;;6.31;58.52;96443.69;10462659;28;2069;-86
2021/03/23 13:41:09;;;;;;;;;;;8.70;87.20;;;6.25;57.98;96438.47;10493620;28;1953;-84
2021/03/23 13:46:20;;;;;;;;;;;7.30;86.60;;;6.23;57.80;96428.00;10476618;28;1916;-87
2021/03/23 13:51:34;;;;;;;;;;;7.20;86.30;;;6.46;55.83;96430.72;10472745;28;1848;-83
2021/03/23 13:56:37;;;;;;;;;;;7.30;85.50;;;7.02;55.10;96425.81;10472434;28;2302;-87
2021/03/23 14:01:42;;;;;;;;;;;9.10;85.80;;;7.11;53.97;96427.06;10480407;28;1989;-85
2021/03/23 14:06:44;;;;;;;;;;;9.10;84.40;;;7.12;54.93;96420.66;10478035;28;1745;-84
2021/03/23 14:11:46;;;;;;;;;;;9.70;85.50;;;6.76;56.00;96419.09;10468852;28;1847;-84
2021/03/23 14:16:48;;;;;;;;;;;7.80;84.50;;;6.56;55.02;96424.00;10472050;28;1728;-85
2021/03/23 14:21:51;;;;;;;;;;;8.50;83.90;;;6.75;53.15;96418.28;10468862;28;2018;-82
2021/03/23 14:26:53;;;;;;;;;;;7.50;82.80;;;6.20;54.28;96418.59;10504548;28;1935;-84
2021/03/23 14:31:56;;;;;;;;;;;7.40;81.90;;;6.62;54.05;96421.19;10480678;28;1546;-87
2021/03/23 14:36:59;;;;;;;;;;;7.50;82.60;;;6.76;53.93;96408.41;10463044;28;1576;-87
2021/03/23 14:42:01;;;;;;;;;;;8.50;83.10;;;6.91;53.46;96406.06;10470288;28;2001;-87
2021/03/23 14:47:11;;;;;;;;;;;7.80;82.50;;;6.67;53.19;96415.94;10475216;28;1929;-86
2021/03/23 14:52:14;;;;;;;;;;;7.70;82.00;;;6.68;53.87;96416.75;10455622;28;2110;-85
2021/03/23 14:57:17;;;;;;;;;;;7.60;81.90;;;6.95;52.85;96406.41;10472398;28;1966;-84
2021/03/23 15:02:19;;;;;;;;;;;7.80;81.30;;;6.75;53.32;96399.59;10494943;28;2093;-85
2021/03/23 15:07:22;;;;;;;;;;;8.10;82.20;;;6.66;53.29;96402.84;10464044;28;1934;-85
2021/03/23 15:12:24;;;;;;;;;;;9.00;82.00;;;6.92;52.13;96407.69;10471118;28;1983;-82
2021/03/23 15:17:30;;;;;;;;;;;7.70;81.00;;;7.11;52.62;96411.03;10472210;28;2086;-86
2021/03/23 15:22:32;;;;;;;;;;;7.90;81.30;;;6.64;53.02;96396.91;10449192;28;2259;-83
2021/03/23 15:27:34;;;;;;;;;;;7.80;80.60;;;6.25;54.67;96401.91;10477619;28;2074;-85
2021/03/23 15:32:36;;;;;;;;;;;7.50;81.30;;;6.34;53.94;96394.34;10478326;28;2129;-85
2021/03/23 15:37:38;;;;;;;;;;;7.40;81.60;;;6.24;54.18;96389.59;10470223;28;1950;-84
2021/03/23 15:42:40;;;;;;;;;;;7.30;81.90;;;6.12;54.17;96376.25;10481310;28;2030;-83
2021/03/23 15:47:55;;;;;;;;;;;7.20;81.60;;;5.80;55.54;96380.22;10485496;28;1985;-85
2021/03/23 15:52:58;;;;;;;;;;;7.00;82.20;;;5.72;55.53;96392.00;10506129;28;2014;-86
2021/03/23 15:58:00;;;;;;;;;;;6.90;82.70;;;5.60;56.27;96380.50;10487685;28;2123;-85
2021/03/23 16:03:02;;;;;;;;;;;8.10;84.00;;;5.43;56.49;96380.31;10473242;28;1883;-84
2021/03/23 16:08:05;;;;;;;;;;;6.60;83.40;;;5.10;58.42;96383.44;10484670;28;2040;-83
2021/03/23 16:13:07;;;;;;;;;;;6.40;84.90;;;4.98;58.71;96383.34;10490295;28;1966;-84
2021/03/23 16:18:24;;;;;;;;;;;6.10;85.70;;;5.03;58.99;96388.84;10483887;28;1986;-84
2021/03/23 16:23:26;;;;;;;;;;;6.10;86.50;;;5.10;58.70;96386.09;10469693;28;1835;-81
2021/03/23 16:28:29;;;;;;;;;;;6.20;85.70;;;5.10;58.33;96386.09;10460792;28;2266;-82
2021/03/23 16:33:30;;;;;;;;;;;6.20;86.20;;;5.01;58.39;96380.22;10467499;28;2041;-83
2021/03/23 16:38:33;;;;;;;;;;;6.10;85.80;;;4.84;59.32;96385.38;10467162;28;1977;-86
2021/03/23 16:43:34;;;;;;;;;;;7.10;86.90;;;4.68;60.33;96390.44;10507028;28;1999;-85
2021/03/23 16:48:51;;;;;;;;;;;5.90;87.50;;;4.55;61.40;96397.53;10498621;28;2089;-83
2021/03/23 16:53:53;;;;;;;;;;;3.90;87.20;;;4.44;61.73;96392.13;10497637;28;1904;-83
2021/03/23 16:58:55;;;;;;;;;;;6.50;89.10;;;4.45;61.08;96401.72;10514443;28;2024;-83
2021/03/23 17:03:57;;;;;;;;;;;5.60;88.60;;;4.36;61.56;96406.53;10478591;28;2077;-83
2021/03/23 17:08:59;;;;;;;;;;;6.80;89.40;;;4.27;62.17;96414.00;10522219;28;2084;-84
2021/03/23 17:14:01;;;;;;;;;;;6.80;90.30;;;4.13;62.71;96424.94;10467811;28;2159;-84
2021/03/23 17:19:15;;;;;;;;;;;5.40;90.00;;;4.09;63.32;96419.25;10452332;28;2389;-83
2021/03/23 17:24:19;;;;;;;;;;;5.30;90.70;;;4.00;64.04;96423.19;10487591;28;1983;-85
2021/03/23 17:29:21;;;;;;;;;;;6.40;92.10;;;3.88;65.42;96420.44;10498597;28;2063;-84
2021/03/23 17:34:23;;;;;;;;;;;6.30;93.10;;;3.76;65.68;96420.31;10457915;28;2069;-85
2021/03/23 17:39:26;;;;;;;;;;;6.70;93.90;;;3.60;66.67;96434.09;10452590;28;2167;-84
2021/03/23 17:44:28;;;;;;;;;;;5.80;94.40;;;3.36;67.55;96445.47;10485682;28;2300;-84
2021/03/23 17:49:38;;;;;;;;;;;4.70;94.60;;;3.33;69.26;96443.25;10471374;28;2010;-85
2021/03/23 17:54:40;;;;;;;;;;;4.60;96.40;;;3.35;70.09;96449.97;10482326;28;2021;-84
2021/03/23 17:59:42;;;;;;;;;;;4.60;97.30;;;3.29;70.38;96460.63;10476014;28;2041;-84
2021/03/23 18:04:44;;;;;;;;;;;5.20;98.30;;;3.20;70.83;96455.56;10462722;28;1906;-86
2021/03/23 18:09:45;;;;;;;;;;;6.10;99.70;;;3.04;71.57;96461.31;10472875;28;2025;-86
2021/03/23 18:14:47;;;;;;;;;;;4.30;99.30;;;2.97;71.73;96463.19;10469095;28;2029;-85
2021/03/23 18:20:00;;;;;;;;;;;5.10;99.90;;;2.82;72.30;96470.59;10484430;28;2138;-85
2021/03/23 18:25:04;;;;;;;;;;;4.20;99.90;;;2.78;72.33;96472.84;10487546;28;2022;-86
2021/03/23 18:30:07;;;;;;;;;;;4.10;99.90;;;2.88;71.56;96477.72;10473246;28;2045;-86
2021/03/23 18:35:09;;;;;;;;;;;4.50;99.90;;;2.85;71.59;96480.78;10466092;28;2358;-87
2021/03/23 18:40:11;;;;;;;;;;;5.40;99.90;;;2.69;72.17;96490.00;10498271;28;2343;-86
2021/03/23 18:45:14;;;;;;;;;;;3.90;99.90;;;2.56;73.04;96488.19;10461528;28;2000;-85
2021/03/23 18:50:25;;;;;;;;;;;5.20;99.90;;;2.49;73.31;96482.06;10487085;28;2051;-85
2021/03/23 18:55:27;;;;;;;;;;;3.80;99.90;;;2.40;73.54;96494.72;10529880;28;2102;-84
2021/03/23 19:00:30;;;;;;;;;;;3.70;99.90;;;2.29;74.20;96502.47;10486927;28;1913;-86
2021/03/23 19:05:32;;;;;;;;;;;3.60;99.90;;;2.23;74.48;96495.31;10477024;28;1684;-86
2021/03/23 19:10:39;;;;;;;;;;;3.50;99.90;;;2.14;74.94;96502.66;10487841;28;1345;-85
2021/03/23 19:15:41;;;;;;;;;;;4.90;99.90;;;2.09;75.20;96510.41;10483693;28;1639;-85
2021/03/23 19:20:50;;;;;;;;;;;5.40;99.90;;;1.98;75.76;96511.03;10476327;28;1898;-86
2021/03/23 19:25:52;;;;;;;;;;;3.30;99.90;;;1.90;76.14;96514.66;10472839;28;1632;-85
2021/03/23 19:30:56;;;;;;;;;;;3.20;99.90;;;1.85;76.78;96523.25;10480356;28;1361;-84
2021/03/23 19:36:00;;;;;;;;;;;3.10;99.90;;;1.78;76.62;96527.72;10491239;28;1572;-85
2021/03/23 19:41:04;;;;;;;;;;;3.00;99.90;;;1.75;77.41;96521.97;10524728;28;1882;-82
2021/03/23 19:46:07;;;;;;;;;;;4.10;99.90;;;1.74;77.46;96533.59;10510602;28;1769;-85
2021/03/23 19:51:17;;;;;;;;;;;3.10;99.90;;;1.76;78.01;96529.72;10504249;28;1491;-86
2021/03/23 19:56:19;;;;;;;;;;;4.20;99.90;;;1.84;77.51;96541.97;10503423;28;1121;-85
2021/03/23 20:01:21;;;;;;;;;;;3.00;99.90;;;1.94;77.55;96544.25;10477008;28;1953;-85
2021/03/23 20:06:24;;;;;;;;;;;3.10;99.90;;;2.08;77.25;96538.78;10486616;28;1518;-87
2021/03/23 20:11:26;;;;;;;;;;;3.20;99.90;;;2.20;76.16;96536.34;10473392;28;1543;-84
2021/03/23 20:16:28;;;;;;;;;;;3.70;99.90;;;2.15;76.52;96534.28;10482330;28;1719;-85
2021/03/23 20:21:37;;;;;;;;;;;4.70;99.90;;;2.11;76.59;96526.97;10482505;28;2403;-87
2021/03/23 20:26:39;;;;;;;;;;;3.30;99.90;;;1.96;77.11;96528.94;10464345;28;2404;-87
2021/03/23 20:31:41;;;;;;;;;;;3.50;99.90;;;1.83;77.93;96537.69;10460445;28;2367;-86
2021/03/23 20:36:44;;;;;;;;;;;3.10;99.90;;;1.72;77.98;96538.25;10470462;28;2247;-83
2021/03/23 20:41:45;;;;;;;;;;;3.00;99.90;;;1.66;78.34;96531.94;10477459;28;2320;-86
2021/03/23 20:46:48;;;;;;;;;;;4.40;99.90;;;1.66;78.19;96545.19;10463175;28;2339;-87
2021/03/23 20:52:01;;;;;;;;;;;4.70;99.90;;;1.59;78.80;96550.47;10465031;28;2312;-87
2021/03/23 20:57:03;;;;;;;;;;;2.80;99.90;;;1.65;79.25;96553.31;10461522;28;2660;-85
2021/03/23 21:02:05;;;;;;;;;;;2.80;99.90;;;1.82;79.04;96552.78;10464606;28;2629;-84
2021/03/23 21:07:24;;;;;;;;;;;2.90;99.90;;;1.97;78.90;96557.91;10464721;28;2281;-86
2021/03/23 21:12:25;;;;;;;;;;;3.00;99.90;;;2.03;78.06;96551.81;10456999;28;2354;-88
2021/03/23 21:17:27;;;;;;;;;;;3.10;99.90;;;2.03;77.76;96551.81;10462370;28;2319;-86
2021/03/23 21:22:29;;;;;;;;;;;4.20;99.90;;;2.04;77.60;96548.16;10469866;28;2389;-86
2021/03/23 21:27:32;;;;;;;;;;;3.80;99.90;;;1.94;78.01;96555.69;10477277;28;2107;-85
2021/03/23 21:32:33;;;;;;;;;;;3.60;99.90;;;1.85;78.47;96556.88;10504426;28;1773;-85
2021/03/23 21:37:35;;;;;;;;;;;3.00;99.90;;;1.72;79.00;96555.00;10485411;28;2194;-86
2021/03/23 21:42:37;;;;;;;;;;;4.40;99.90;;;1.64;79.51;96563.13;10489972;28;1925;-85
2021/03/23 21:47:39;;;;;;;;;;;4.50;99.90;;;1.61;80.60;96567.00;10492291;28;2232;-86
2021/03/23 21:52:48;;;;;;;;;;;2.80;99.90;;;1.65;80.57;96563.94;10502266;28;1308;-86
2021/03/23 21:57:50;;;;;;;;;;;2.80;99.90;;;1.75;80.63;96559.91;10490597;28;1781;-85
2021/03/23 22:02:52;;;;;;;;;;;2.80;99.90;;;1.85;80.23;96554.25;10499628;28;2253;-86
2021/03/23 22:07:54;;;;;;;;;;;2.90;99.90;;;1.91;79.59;96548.13;10494260;28;2306;-85
2021/03/23 22:12:56;;;;;;;;;;;3.00;99.90;;;1.87;79.72;96553.00;10486657;28;2245;-87
2021/03/23 22:17:58;;;;;;;;;;;3.00;99.90;;;1.73;79.94;96551.34;10471396;28;2369;-87
2021/03/23 22:23:09;;;;;;;;;;;3.00;99.90;;;1.58;80.11;96548.81;10479547;28;2337;-86
2021/03/23 22:28:13;;;;;;;;;;;2.80;99.90;;;1.42;80.71;96543.06;10501543;28;2373;-87
2021/03/23 22:33:19;;;;;;;;;;;2.70;99.90;;;1.30;80.96;96545.44;10467754;28;2371;-87
2021/03/23 22:38:21;;;;;;;;;;;4.50;99.90;;;1.22;81.85;96542.97;10462202;28;2279;-86
2021/03/23 22:43:23;;;;;;;;;;;2.50;99.90;;;1.13;81.75;96536.19;10480409;28;2784;-87
2021/03/23 22:48:25;;;;;;;;;;;2.40;99.90;;;1.04;81.78;96536.34;10470939;28;2344;-86
2021/03/23 22:53:33;;;;;;;;;;;2.30;99.90;;;0.96;82.06;96538.34;10468335;28;2204;-88
2021/03/23 22:58:38;;;;;;;;;;;2.20;99.90;;;0.87;82.21;96527.06;10468547;28;1980;-85
2021/03/23 23:03:40;;;;;;;;;;;2.70;99.90;;;0.83;82.40;96528.50;10465070;28;2752;-86
2021/03/23 23:08:42;;;;;;;;;;;3.50;99.90;;;0.83;82.34;96517.91;10468431;28;2387;-86
2021/03/23 23:13:44;;;;;;;;;;;2.10;99.90;;;0.81;82.41;96525.19;10471681;28;2161;-85
2021/03/23 23:18:46;;;;;;;;;;;3.60;99.90;;;0.76;82.62;96511.72;10498761;28;2348;-86
2021/03/23 23:23:59;;;;;;;;;;;2.00;99.90;;;0.71;82.34;96508.88;10477559;28;2275;-85
2021/03/23 23:29:01;;;;;;;;;;;2.60;99.90;;;0.68;82.39;96514.53;10466961;28;2225;-86
2021/03/23 23:34:03;;;;;;;;;;;1.90;99.90;;;0.66;82.63;96511.28;10469220;28;2155;-86
2021/03/23 23:39:04;;;;;;;;;;;2.80;99.90;;;0.56;82.57;96508.13;10463606;28;2759;-84
2021/03/23 23:44:06;;;;;;;;;;;3.60;99.90;;;0.48;82.78;96509.91;10461390;28;1588;-86
2021/03/23 23:49:08;;;;;;;;;;;1.80;99.90;;;0.42;83.30;96518.63;10462623;28;2135;-86